Ana Sayfa
METAR-TAF:

METAR-TAF

Havaalanları :

Gladstone, Avustralya

Enlem: 23-52-11S, Boylam: 151-13-22E, yükseklik: 18 m

Güncel hava durumu gözlemi

Rapor saat 15:30 UTC de 21 dakika önce yapıldı.
Rüzgar güneybatıdan 5 kt
Sıcaklık 24°C
Nem 89%
Basınç 1009 hPa
Görüş mesafesi 10 km veya daha fazla

METAR: YGLA 281530Z AUTO 22005KT 9999 // NCD 24/22 Q1009 RF00.0/000.0

Saat: 01:51 (15:51 UTC)

Tahmin

Rapor saat 10:50 UTC de 5 saat ve 1 dakika önce yapıldı.
Ayın 28'si saat 12 UTC'den ayın 29'si saat 00 UTC'ye kadar geçerli Tahmin
Rüzgar güneydan 8 kt
Görüş mesafesi 10 km veya daha fazla
1500 ft yükseklikte parçalı bulutlu
Ayın 28'si saat 2300 UTC'den
Rüzgar güneydoğudan 11 kt
Görüş mesafesi 10 km veya daha fazla
3000 ft yükseklikte parçalı bulutlu

TAF: YGLA 281050Z 2812/2900 18008KT 9999 SCT015 FM282300 14011KT 9999 SCT030

4.000'den fazla havaalanı için hava durumu gözlemleri ve tahminleri (METAR ve TAF raporları).

Kullanılabilir istasyonlar harita üzerinde sarı ve kırmızı noktalarla gösterilir.

İstasyonun adını görmek için fareyi noktanın üzerinde gezdirin.

Sonrasında hava gözlem ve tahminlerini görmek için tıklayın.

Haritayı değiştirmek için: yaklaştırmak için siyah artı işaretli yeşil düğmeye ve uzaklaştırmak için de eksi işaretli düğmeye hızla tıklayın; bitişik haritalar için yeşil okları kullanın.


METAR-TAF: